PADL/DLG METAR and TAF weather

Enter ICAO airport designator
Station Type Date Time Source
PADL METAR 2022/06/28 08:56 UTC NOAA

PADL 280856Z AUTO 00000KT 10SM BKN027 OVC035 13/12 A3020 RMK AO2 SLP229 T01280122 401440100 51004


Station Type Date Time Source
PADL Decoded METAR 2022/06/28 08:56 UTC NOAA

Dillingham, Dillingham Airport, AK, United States (PADL) 59-03N 158-31W 29M
Jun 28, 2022 - 04:56 AM EDT / 2022.06.28 0856 UTC
Wind: Calm:0
Visibility: 10 mile(s):0
Sky conditions: overcast
Temperature: 55.0 F (12.8 C)
Dew Point: 54.0 F (12.2 C)
Relative Humidity: 96%
Pressure (altimeter): 30.2 in. Hg (1022 hPa)
Pressure tendency: 0.01 inches (0.4 hPa) higher than three hours ago
ob: PADL 280856Z AUTO 00000KT 10SM BKN027 OVC035 13/12 A3020 RMK AO2 SLP229 T01280122 401440100 51004
cycle: 9

Station Type Date Time Source
PADL TAF 2022/06/28 06:34 UTC NOAA

TAF PADL 280532Z 2806/2906 VRB03KT P6SM FEW008 OVC035
FM280900 VRB03KT P6SM FEW009 OVC025
FM281200 VRB03KT P6SM OVC009
FM282000 VRB03KT P6SM SCT009 OVC025

Example: see airport list